Time;durP1;ratioP1;P1;durP2;ratioP2;P2;SDS_P1;SDS_P2;PMS_P1;PMS_P2;Temp;Humidity;BMP_temperature;BMP_pressure;BME280_temperature;BME280_humidity;BME280_pressure;Samples;Min_cycle;Max_cycle;Signal;HPM_P1;HPM_P2
2022/01/12 00:02:17;;;;;;;16.83;11.57;;;-0.30;90.30;;;;;;5034684;28;20532;-82
2022/01/12 00:04:42;;;;;;;17.57;11.13;;;-0.40;90.40;;;;;;5034668;28;20170;-82
2022/01/12 00:07:08;;;;;;;16.70;11.53;;;-0.30;90.70;;;;;;5031913;28;20524;-82
2022/01/12 00:09:34;;;;;;;16.43;11.50;;;-0.30;90.50;;;;;;5034709;28;20248;-81
2022/01/12 00:12:00;;;;;;;18.10;11.37;;;-0.30;90.50;;;;;;5034637;28;20180;-83
2022/01/12 00:14:28;;;;;;;16.90;11.37;;;-0.40;90.60;;;;;;5033939;28;20589;-83
2022/01/12 00:16:59;;;;;;;17.37;11.73;;;-0.50;90.70;;;;;;5034675;28;20174;-83
2022/01/12 00:19:26;;;;;;;18.37;11.67;;;-0.50;90.80;;;;;;5034708;28;20184;-82
2022/01/12 00:21:55;;;;;;;18.37;12.27;;;-0.50;90.70;;;;;;5034636;28;20188;-82
2022/01/12 00:24:22;;;;;;;19.03;12.30;;;-0.40;90.90;;;;;;5034785;28;20176;-82
2022/01/12 00:35:01;;;;;;;18.63;12.30;;;-0.60;91.20;;;;;;5034664;28;20218;-82
2022/01/12 00:37:26;;;;;;;20.27;11.47;;;-0.70;91.30;;;;;;5034486;28;20583;-81
2022/01/12 00:39:58;;;;;;;15.17;10.10;;;-0.70;91.30;;;;;;5036708;28;20200;-82
2022/01/12 00:42:26;;;;;;;15.57;10.30;;;-0.80;91.00;;;;;;5048430;28;20171;-81
2022/01/12 00:44:53;;;;;;;12.40;9.23;;;-0.80;91.10;;;;;;5053089;28;20165;-82
2022/01/12 00:47:19;;;;;;;13.47;9.13;;;-0.80;91.00;;;;;;5035621;28;20649;-82
2022/01/12 00:49:45;;;;;;;13.87;8.90;;;-0.90;90.70;;;;;;5017852;28;20275;-82
2022/01/12 00:52:10;;;;;;;14.07;9.23;;;-0.90;90.60;;;;;;5038776;28;20176;-81
2022/01/12 00:54:37;;;;;;;11.53;7.87;;;-0.80;90.80;;;;;;5034576;28;20271;-82
2022/01/12 00:57:04;;;;;;;12.70;8.47;;;-0.90;90.50;;;;;;5034437;28;20656;-82
2022/01/12 00:59:29;;;;;;;12.37;8.23;;;-1.00;90.60;;;;;;5034017;28;20291;-82
2022/01/12 01:01:57;;;;;;;9.43;7.53;;;-1.10;90.50;;;;;;5033977;28;20235;-82
2022/01/12 01:04:24;;;;;;;10.97;7.50;;;-1.10;90.50;;;;;;5033947;28;20172;-82
2022/01/12 01:06:50;;;;;;;11.27;7.50;;;-1.20;90.90;;;;;;5034844;28;20168;-81
2022/01/12 01:09:17;;;;;;;10.47;7.80;;;-1.10;91.00;;;;;;5034376;28;20176;-82
2022/01/12 01:11:42;;;;;;;10.90;7.90;;;-1.10;91.30;;;;;;5036270;28;20177;-82
2022/01/12 01:14:22;;;;;;;9.97;7.73;;;-1.10;90.90;;;;;;5035338;28;20690;-83
2022/01/12 01:25:26;;;;;;;13.30;7.80;;;-1.10;90.90;;;;;;5016080;28;20238;-82
2022/01/12 01:25:27;;;;;;;9.93;7.83;;;-1.20;91.00;;;;;;5033819;28;20176;-82
2022/01/12 01:27:53;;;;;;;11.43;7.70;;;-1.20;91.20;;;;;;5033439;28;20149;-82
2022/01/12 01:30:19;;;;;;;13.17;8.03;;;-1.20;91.20;;;;;;5033290;28;20223;-82
2022/01/12 01:32:45;;;;;;;10.50;7.97;;;-1.10;91.30;;;;;;5033482;28;20563;-81
2022/01/12 01:35:11;;;;;;;11.40;7.87;;;-1.20;91.10;;;;;;5033499;28;20180;-81
2022/01/12 01:37:40;;;;;;;11.50;7.90;;;-1.20;91.00;;;;;;5015820;28;20658;-82
2022/01/12 01:40:08;;;;;;;11.07;7.97;;;-1.30;91.00;;;;;;5033516;28;20196;-83
2022/01/12 01:42:55;;;;;;;10.83;7.80;;;-1.40;91.10;;;;;;5036156;28;20284;-83
2022/01/12 01:53:46;;;;;;;12.60;7.93;;;-1.70;91.40;;;;;;5033711;28;20679;-82
2022/01/12 01:56:12;;;;;;;10.53;8.20;;;-1.80;91.50;;;;;;5033157;28;20169;-82
2022/01/12 01:58:39;;;;;;;12.70;8.27;;;-2.00;91.60;;;;;;5033160;28;20176;-83
2022/01/12 02:01:06;;;;;;;13.30;8.00;;;-1.90;91.70;;;;;;5033457;28;20652;-82
2022/01/12 02:03:32;;;;;;;14.67;7.83;;;-2.00;91.70;;;;;;5033516;28;20218;-82
2022/01/12 02:05:59;;;;;;;14.37;8.57;;;-2.00;92.00;;;;;;5033428;28;20243;-82
2022/01/12 02:08:25;;;;;;;13.43;8.27;;;-1.90;92.10;;;;;;5033475;28;20176;-82
2022/01/12 02:10:57;;;;;;;12.13;7.87;;;-1.90;91.80;;;;;;5033362;28;20172;-82
2022/01/12 02:13:24;;;;;;;11.23;8.17;;;-1.90;91.70;;;;;;5033327;28;20698;-82
2022/01/12 02:15:51;;;;;;;11.73;8.30;;;-1.90;91.60;;;;;;5033259;28;20233;-81
2022/01/12 02:35:16;;;;;;;11.97;8.40;;;-2.10;92.00;;;;;;5042745;28;20312;-81
2022/01/12 02:40:34;;;;;;;11.80;8.83;;;-2.20;92.30;;;;;;5036442;28;20231;-81
2022/01/12 02:51:09;;;;;;;13.57;9.17;;;-2.20;92.50;;;;;;5036292;28;20641;-82
2022/01/12 02:53:43;;;;;;;13.37;8.97;;;-2.20;92.50;;;;;;5036595;28;20164;-81
2022/01/12 02:56:15;;;;;;;13.63;8.67;;;-2.20;92.40;;;;;;5037136;28;20167;-82
2022/01/12 02:58:43;;;;;;;15.90;9.27;;;-2.20;92.50;;;;;;5037946;28;20178;-82
2022/01/12 03:01:49;;;;;;;13.17;8.67;;;-2.20;92.50;;;;;;5041828;28;20215;-81
2022/01/12 03:04:12;;;;;;;14.80;8.63;;;-2.20;92.70;;;;;;5041041;28;20188;-81
2022/01/12 03:06:40;;;;;;;13.67;9.03;;;-2.20;92.60;;;;;;5038529;28;20263;-81
2022/01/12 03:09:08;;;;;;;16.20;10.30;;;-2.20;92.80;;;;;;5037477;28;20176;-81
2022/01/12 03:11:36;;;;;;;13.63;8.27;;;-2.30;92.60;;;;;;5035944;28;20196;-81
2022/01/12 03:14:02;;;;;;;18.93;9.37;;;-2.30;92.80;;;;;;5036047;28;20169;-81
2022/01/12 03:16:28;;;;;;;14.33;8.90;;;-2.30;92.90;;;;;;5036016;28;20636;-82
2022/01/12 03:18:57;;;;;;;12.40;8.97;;;-2.30;92.90;;;;;;5035807;28;20168;-82
2022/01/12 03:21:33;;;;;;;14.47;8.77;;;-2.40;92.90;;;;;;5017935;28;20260;-82
2022/01/12 03:24:00;;;;;;;13.83;9.27;;;-2.40;92.90;;;;;;5036620;28;20168;-82
2022/01/12 03:26:29;;;;;;;15.87;8.97;;;-2.40;92.90;;;;;;5035530;28;20199;-82
2022/01/12 03:28:56;;;;;;;14.43;8.53;;;-2.40;93.00;;;;;;5035324;28;20682;-82
2022/01/12 03:31:27;;;;;;;14.33;9.20;;;-2.40;93.10;;;;;;5017734;28;20585;-82
2022/01/12 03:33:58;;;;;;;12.43;8.80;;;-2.40;93.20;;;;;;5035392;28;20156;-82
2022/01/12 03:38:52;;;;;;;12.20;8.27;;;-2.40;93.10;;;;;;5035284;28;20345;-82
2022/01/12 03:41:18;;;;;;;13.37;9.30;;;-2.40;93.20;;;;;;5017579;28;20187;-82
2022/01/12 03:43:45;;;;;;;13.23;8.83;;;-2.30;93.20;;;;;;5017447;28;20169;-81
2022/01/12 03:46:12;;;;;;;15.10;9.70;;;-2.40;93.00;;;;;;5035497;28;20175;-81
2022/01/12 03:48:38;;;;;;;13.63;8.80;;;-2.40;93.00;;;;;;5016193;28;20256;-81
2022/01/12 03:51:04;;;;;;;16.50;9.77;;;-2.50;93.20;;;;;;5034905;28;20204;-81
2022/01/12 03:53:30;;;;;;;12.90;9.70;;;-2.50;93.20;;;;;;5017395;28;20574;-81
2022/01/12 03:55:55;;;;;;;17.17;9.47;;;-2.60;93.50;;;;;;5036356;28;20179;-81
2022/01/12 03:58:21;;;;;;;10.67;8.47;;;-2.40;93.60;;;;;;5035552;28;20275;-82
2022/01/12 04:00:47;;;;;;;17.53;10.90;;;-2.50;93.20;;;;;;5035506;28;20226;-82
2022/01/12 04:03:15;;;;;;;13.60;9.20;;;-2.50;93.40;;;;;;5034871;28;20180;-82
2022/01/12 04:08:25;;;;;;;15.93;10.10;;;-2.50;93.70;;;;;;5035177;28;20226;-82
2022/01/12 04:11:00;;;;;;;17.13;9.67;;;-2.60;93.50;;;;;;5035079;28;20628;-82
2022/01/12 04:13:31;;;;;;;18.60;9.90;;;-2.70;93.50;;;;;;5033998;28;20171;-82
2022/01/12 04:16:03;;;;;;;16.03;9.40;;;-2.70;93.60;;;;;;5035269;28;20211;-81
2022/01/12 04:18:29;;;;;;;16.57;8.90;;;-2.80;93.70;;;;;;5041262;28;20175;-81
2022/01/12 04:20:57;;;;;;;16.43;10.03;;;-2.90;93.70;;;;;;5053014;28;20204;-81
2022/01/12 04:23:23;;;;;;;14.03;8.40;;;-2.90;93.80;;;;;;5025216;28;20247;-82
2022/01/12 04:25:56;;;;;;;16.10;10.10;;;-2.80;94.10;;;;;;5034822;28;20196;-83
2022/01/12 04:28:23;;;;;;;15.33;9.00;;;-2.80;93.90;;;;;;5034618;28;20646;-82
2022/01/12 04:30:50;;;;;;;14.77;9.00;;;-2.80;94.20;;;;;;5034227;28;20307;-81
2022/01/12 04:33:17;;;;;;;13.67;9.13;;;-2.80;94.00;;;;;;5034250;28;20506;-82
2022/01/12 04:35:48;;;;;;;15.00;9.07;;;-2.80;93.90;;;;;;5016483;28;20178;-82
2022/01/12 04:38:15;;;;;;;13.13;9.60;;;-2.80;93.80;;;;;;5034318;28;20153;-82
2022/01/12 04:40:41;;;;;;;11.77;8.53;;;-2.90;93.80;;;;;;5034119;28;20219;-81
2022/01/12 04:43:08;;;;;;;13.47;8.47;;;-2.90;94.00;;;;;;5034097;28;20177;-81
2022/01/12 04:48:30;;;;;;;12.37;8.80;;;-2.80;94.00;;;;;;5034888;28;20180;-81
2022/01/12 04:50:52;;;;;;;16.20;9.20;;;-2.70;94.10;;;;;;5038496;28;20183;-80
2022/01/12 04:53:19;;;;;;;11.43;8.23;;;-2.70;94.10;;;;;;5038990;28;20183;-80
2022/01/12 04:55:49;;;;;;;16.20;9.23;;;-2.90;93.80;;;;;;5036638;28;20676;-83
2022/01/12 04:58:16;;;;;;;13.57;8.93;;;-3.00;94.10;;;;;;5033991;28;20232;-82
2022/01/12 05:00:43;;;;;;;13.17;8.47;;;-3.00;94.10;;;;;;5030681;28;20212;-82
2022/01/12 05:13:58;;;;;;;14.23;9.23;;;-3.10;94.30;;;;;;5033899;28;20166;-81
2022/01/12 05:16:24;;;;;;;13.00;9.17;;;-3.20;94.50;;;;;;5033843;28;20207;-80
2022/01/12 05:18:53;;;;;;;13.53;9.13;;;-3.20;94.50;;;;;;5035980;28;20180;-81
2022/01/12 05:21:24;;;;;;;19.37;9.67;;;-3.30;94.70;;;;;;5038071;28;20211;-84
2022/01/12 05:23:50;;;;;;;12.83;8.50;;;-3.20;94.80;;;;;;5019214;28;20206;-83
2022/01/12 05:26:16;;;;;;;16.10;9.50;;;-3.20;94.90;;;;;;5033939;28;20498;-83
2022/01/12 05:28:42;;;;;;;14.27;9.10;;;-3.00;94.80;;;;;;5035267;28;20168;-82
2022/01/12 05:31:11;;;;;;;15.47;9.87;;;-3.00;94.90;;;;;;5033923;28;20183;-82
2022/01/12 05:33:37;;;;;;;15.37;9.43;;;-2.90;94.70;;;;;;5033027;28;20322;-82
2022/01/12 05:36:06;;;;;;;15.30;9.80;;;-2.90;94.50;;;;;;5033142;28;20201;-83
2022/01/12 05:38:33;;;;;;;17.10;9.73;;;-2.90;94.50;;;;;;5033115;28;20178;-82
2022/01/12 05:41:03;;;;;;;14.40;9.67;;;-2.90;94.60;;;;;;5033367;28;20214;-82
2022/01/12 05:43:31;;;;;;;15.73;9.60;;;-2.80;94.60;;;;;;5033170;28;20253;-82
2022/01/12 05:46:08;;;;;;;12.47;9.23;;;-2.80;94.70;;;;;;5033285;28;20183;-82
2022/01/12 05:51:19;;;;;;;14.67;9.73;;;-3.00;94.40;;;;;;5033765;28;20181;-82
2022/01/12 05:53:45;;;;;;;14.70;9.77;;;-3.00;94.50;;;;;;5016338;28;20632;-82
2022/01/12 05:56:11;;;;;;;14.50;10.30;;;-3.10;94.60;;;;;;5034610;28;20190;-82
2022/01/12 05:58:37;;;;;;;14.13;9.50;;;-3.10;94.70;;;;;;5040140;28;20179;-82
2022/01/12 06:01:04;;;;;;;17.70;11.23;;;-3.10;94.80;;;;;;5016772;28;21154;-81
2022/01/12 06:03:31;;;;;;;19.33;10.70;;;-3.20;94.80;;;;;;5015719;28;20176;-82
2022/01/12 06:05:57;;;;;;;17.97;10.63;;;-3.20;95.10;;;;;;5033448;28;20176;-81
2022/01/12 06:08:25;;;;;;;19.20;10.13;;;-3.30;94.80;;;;;;5034325;28;20250;-81
2022/01/12 06:10:51;;;;;;;17.83;10.73;;;-3.40;95.10;;;;;;5040930;28;20172;-80
2022/01/12 06:13:17;;;;;;;16.47;10.20;;;-3.30;95.30;;;;;;5047917;28;20328;-83
2022/01/12 06:15:42;;;;;;;14.73;10.10;;;-3.30;95.20;;;;;;5038512;28;20196;-83
2022/01/12 06:18:08;;;;;;;15.77;10.27;;;-3.30;95.20;;;;;;5037359;28;20254;-84
2022/01/12 06:20:34;;;;;;;20.27;10.63;;;-3.30;95.20;;;;;;5036749;28;20289;-84
2022/01/12 06:23:00;;;;;;;19.60;11.30;;;-3.40;95.10;;;;;;5036589;28;20632;-83
2022/01/12 06:25:25;;;;;;;18.60;10.73;;;-3.30;95.30;;;;;;5036534;28;20201;-82
2022/01/12 06:27:55;;;;;;;20.23;10.83;;;-3.30;95.30;;;;;;5018653;28;20188;-83
2022/01/12 06:32:53;;;;;;;17.50;11.03;;;-3.30;95.20;;;;;;5037371;28;20160;-83
2022/01/12 06:35:19;;;;;;;17.70;10.87;;;-3.30;95.20;;;;;;5036529;28;20263;-82
2022/01/12 06:37:45;;;;;;;18.07;11.60;;;-3.20;95.30;;;;;;5036107;28;20262;-83
2022/01/12 06:40:13;;;;;;;14.53;10.60;;;-3.20;95.10;;;;;;5036039;28;20693;-82
2022/01/12 06:42:39;;;;;;;17.60;10.73;;;-3.30;95.30;;;;;;5036423;28;20180;-82
2022/01/12 06:45:06;;;;;;;16.50;11.17;;;-3.40;95.30;;;;;;5041672;28;20210;-83
2022/01/12 06:47:32;;;;;;;17.83;10.63;;;-3.50;95.50;;;;;;5045881;28;20172;-83
2022/01/12 06:49:58;;;;;;;18.97;11.03;;;-3.40;95.70;;;;;;5028384;28;20199;-81
2022/01/12 06:52:24;;;;;;;16.53;10.97;;;-3.30;95.90;;;;;;5041671;28;20589;-82
2022/01/12 06:54:50;;;;;;;21.73;10.90;;;-3.20;95.60;;;;;;5038561;28;20255;-82
2022/01/12 06:57:17;;;;;;;14.43;10.63;;;-3.20;95.40;;;;;;5019131;28;20168;-84
2022/01/12 06:59:44;;;;;;;18.13;11.30;;;-3.30;95.40;;;;;;5036972;28;20203;-83
2022/01/12 07:02:12;;;;;;;16.87;10.70;;;-3.30;95.40;;;;;;5036784;28;20179;-82
2022/01/12 07:04:38;;;;;;;18.57;11.33;;;-3.40;95.50;;;;;;5035987;28;20172;-83
2022/01/12 07:07:05;;;;;;;17.83;10.57;;;-3.30;95.60;;;;;;5036196;28;20178;-82
2022/01/12 07:09:31;;;;;;;22.67;12.53;;;-3.30;95.60;;;;;;5017857;28;20193;-83
2022/01/12 07:11:56;;;;;;;20.30;12.50;;;-3.20;95.60;;;;;;5035565;28;20547;-84
2022/01/12 07:14:23;;;;;;;20.23;12.37;;;-3.20;95.50;;;;;;5035505;28;20179;-84
2022/01/12 07:16:49;;;;;;;18.57;11.97;;;-3.20;95.30;;;;;;5035725;28;20225;-82
2022/01/12 07:19:15;;;;;;;21.23;11.67;;;-3.20;95.30;;;;;;5035616;28;20638;-84
2022/01/12 07:21:41;;;;;;;18.03;12.00;;;-3.20;95.30;;;;;;5035562;28;20629;-84
2022/01/12 07:24:10;;;;;;;17.27;11.27;;;-3.30;95.40;;;;;;5017628;28;20189;-83
2022/01/12 07:26:35;;;;;;;18.17;12.17;;;-3.40;95.70;;;;;;5035481;28;20172;-83
2022/01/12 07:29:01;;;;;;;20.20;11.97;;;-3.40;95.60;;;;;;5017421;28;20265;-81
2022/01/12 07:31:27;;;;;;;20.70;12.23;;;-3.40;95.70;;;;;;5035127;28;20629;-81
2022/01/12 07:33:56;;;;;;;20.70;11.93;;;-3.40;95.60;;;;;;5035270;28;20176;-81
2022/01/12 07:36:22;;;;;;;24.53;12.40;;;-3.30;95.80;;;;;;5035126;28;20181;-82
2022/01/12 07:38:50;;;;;;;18.10;11.70;;;-3.20;95.80;;;;;;5035188;28;20610;-82
2022/01/12 07:41:16;;;;;;;21.47;12.30;;;-3.10;95.80;;;;;;5035035;28;20322;-81
2022/01/12 07:43:42;;;;;;;21.10;12.70;;;-3.00;95.80;;;;;;5017225;28;20648;-82
2022/01/12 07:46:08;;;;;;;20.00;11.03;;;-2.90;95.60;;;;;;5035166;28;20184;-82
2022/01/12 07:48:34;;;;;;;20.73;11.90;;;-2.80;97.20;;;;;;5035427;28;20259;-82
2022/01/12 07:51:00;;;;;;;17.60;12.23;;;-2.60;97.80;;;;;;5035202;28;20203;-82
2022/01/12 07:53:26;;;;;;;20.00;12.90;;;-2.30;98.00;;;;;;5035034;28;20230;-82
2022/01/12 07:55:52;;;;;;;16.80;11.80;;;-2.10;97.70;;;;;;5016917;28;20631;-81
2022/01/12 07:58:18;;;;;;;19.23;12.93;;;-2.00;95.80;;;;;;5035738;28;20190;-82
2022/01/12 08:00:43;;;;;;;18.87;12.33;;;-2.10;95.60;;;;;;5018060;28;20207;-82
2022/01/12 08:03:10;;;;;;;21.17;12.67;;;-2.10;95.40;;;;;;5035581;28;20180;-82
2022/01/12 08:05:35;;;;;;;18.83;13.30;;;-2.10;95.30;;;;;;5039949;28;20179;-81
2022/01/12 08:08:02;;;;;;;19.37;12.40;;;-2.20;95.40;;;;;;5051398;28;20183;-82
2022/01/12 08:10:28;;;;;;;19.87;12.80;;;-2.10;95.50;;;;;;5037589;28;20191;-83
2022/01/12 08:12:53;;;;;;;19.47;12.90;;;-2.00;95.60;;;;;;5026708;28;20179;-82
2022/01/12 08:15:19;;;;;;;21.90;12.97;;;-2.00;95.40;;;;;;5038051;28;20187;-82
2022/01/12 08:17:45;;;;;;;20.10;12.77;;;-2.00;95.30;;;;;;5036096;28;20185;-81
2022/01/12 08:20:14;;;;;;;25.10;13.00;;;-2.00;95.50;;;;;;5017758;28;20702;-83
2022/01/12 08:22:40;;;;;;;20.93;13.30;;;-1.90;95.50;;;;;;5035116;28;20252;-83
2022/01/12 08:25:08;;;;;;;21.03;12.67;;;-1.90;95.40;;;;;;5035035;28;20268;-82
2022/01/12 08:27:34;;;;;;;19.33;13.23;;;-1.80;95.20;;;;;;5035137;28;20161;-82
2022/01/12 08:30:02;;;;;;;24.90;13.90;;;-1.80;95.30;;;;;;5034612;28;20562;-83
2022/01/12 08:32:28;;;;;;;18.47;13.03;;;-1.80;95.30;;;;;;5016740;28;20534;-81
2022/01/12 08:34:55;;;;;;;20.27;13.20;;;-1.80;95.70;;;;;;5033457;28;20172;-82
2022/01/12 08:37:21;;;;;;;22.60;13.80;;;-1.70;95.40;;;;;;5016233;28;20184;-83
2022/01/12 08:39:47;;;;;;;22.73;14.50;;;-1.70;95.30;;;;;;5033804;28;20207;-82
2022/01/12 08:42:13;;;;;;;27.33;14.60;;;-1.60;95.30;;;;;;5034131;28;20169;-82
2022/01/12 08:44:38;;;;;;;24.97;13.87;;;-1.60;95.30;;;;;;5036094;28;20204;-82
2022/01/12 08:47:05;;;;;;;20.20;13.87;;;-1.60;95.20;;;;;;5036925;28;20633;-82
2022/01/12 08:49:31;;;;;;;21.37;13.70;;;-1.60;95.10;;;;;;5034798;28;20169;-82
2022/01/12 08:51:57;;;;;;;26.13;13.70;;;-1.50;94.90;;;;;;5035957;28;20696;-83
2022/01/12 08:54:23;;;;;;;24.80;14.33;;;-1.50;95.00;;;;;;5016509;28;20535;-82
2022/01/12 08:56:49;;;;;;;24.93;15.00;;;-1.60;95.20;;;;;;5016430;28;20187;-82
2022/01/12 08:59:15;;;;;;;20.10;13.53;;;-1.50;95.10;;;;;;5033620;28;20172;-82
2022/01/12 09:01:41;;;;;;;21.60;14.47;;;-1.40;95.10;;;;;;5033717;28;20714;-81
2022/01/12 09:04:07;;;;;;;23.77;13.17;;;-1.40;95.30;;;;;;5012541;28;20215;-82
2022/01/12 09:06:33;;;;;;;24.37;14.20;;;-1.30;95.10;;;;;;5014726;28;20304;-83
2022/01/12 09:08:59;;;;;;;20.27;12.90;;;-1.30;95.00;;;;;;5014060;28;20176;-82
2022/01/12 09:11:25;;;;;;;19.87;13.17;;;-1.20;95.10;;;;;;5013970;28;20181;-82
2022/01/12 09:13:51;;;;;;;19.77;13.10;;;-1.20;94.90;;;;;;4997051;28;20571;-82
2022/01/12 09:16:17;;;;;;;22.03;13.83;;;-1.20;95.00;;;;;;5014369;28;20192;-82
2022/01/12 09:18:43;;;;;;;18.87;13.00;;;-1.20;94.90;;;;;;5014407;28;20223;-81
2022/01/12 09:21:10;;;;;;;20.40;12.50;;;-1.10;94.90;;;;;;5014673;28;20280;-81
2022/01/12 09:23:36;;;;;;;21.70;13.50;;;-1.10;95.00;;;;;;5014349;28;20170;-80
2022/01/12 09:26:03;;;;;;;20.30;13.07;;;-1.10;95.00;;;;;;4996984;28;20177;-81
2022/01/12 09:28:30;;;;;;;21.37;13.53;;;-1.00;94.90;;;;;;4996592;28;20185;-82
2022/01/12 09:30:56;;;;;;;21.73;13.20;;;-1.00;95.10;;;;;;5013693;28;20244;-82
2022/01/12 09:33:22;;;;;;;22.67;13.83;;;-1.00;94.90;;;;;;5014021;28;20220;-82
2022/01/12 09:35:49;;;;;;;18.80;12.13;;;-1.00;94.80;;;;;;5013447;28;20257;-82
2022/01/12 09:38:25;;;;;;;18.80;12.77;;;-0.80;97.70;;;;;;5016464;28;20517;-93
2022/01/12 09:40:54;;;;;;;21.13;13.40;;;-0.50;99.30;;;;;;4983414;28;20212;-82
2022/01/12 09:43:24;;;;;;;20.23;13.03;;;-0.30;98.10;;;;;;5013798;28;20383;-82
2022/01/12 09:45:51;;;;;;;19.53;12.93;;;0.00;97.00;;;;;;5013925;28;20197;-82
2022/01/12 09:48:21;;;;;;;18.37;11.90;;;0.20;96.20;;;;;;5016831;28;20521;-82
2022/01/12 09:50:47;;;;;;;19.17;12.27;;;0.10;95.00;;;;;;5017889;28;20173;-83
2022/01/12 09:53:13;;;;;;;21.73;12.83;;;-0.10;94.70;;;;;;5000273;28;20252;-83
2022/01/12 09:55:39;;;;;;;19.63;13.63;;;-0.10;94.40;;;;;;5018153;28;20208;-83
2022/01/12 09:58:05;;;;;;;20.00;12.93;;;-0.20;94.70;;;;;;5017698;28;20181;-85
2022/01/12 10:00:33;;;;;;;18.40;13.47;;;-0.30;94.80;;;;;;5019977;28;20206;-84
2022/01/12 10:03:09;;;;;;;19.93;13.90;;;-0.20;94.90;;;;;;5014527;28;20197;-84
2022/01/12 10:05:39;;;;;;;22.37;14.13;;;-0.20;94.70;;;;;;5033609;28;20652;-84
2022/01/12 10:08:12;;;;;;;24.00;14.20;;;-0.20;94.90;;;;;;5025153;28;20197;-84
2022/01/12 10:10:39;;;;;;;23.27;14.47;;;-0.30;94.90;;;;;;5018335;28;20627;-84
2022/01/12 10:13:16;;;;;;;22.33;13.93;;;-0.30;94.90;;;;;;5017330;28;20182;-84
2022/01/12 10:15:42;;;;;;;19.07;13.00;;;-0.30;94.80;;;;;;5030041;28;20166;-84
2022/01/12 10:18:09;;;;;;;19.43;13.73;;;-0.30;95.00;;;;;;5018877;28;20673;-82
2022/01/12 10:20:44;;;;;;;18.43;13.00;;;-0.20;95.00;;;;;;5037289;28;20201;-84
2022/01/12 10:23:13;;;;;;;18.03;11.97;;;-0.20;95.00;;;;;;5037039;28;20158;-85
2022/01/12 10:25:41;;;;;;;20.63;12.13;;;-0.20;94.60;;;;;;5036680;28;20579;-84
2022/01/12 10:28:23;;;;;;;15.50;11.13;;;-0.10;94.70;;;;;;5041734;28;20595;-83
2022/01/12 10:30:56;;;;;;;18.17;10.87;;;-0.10;94.30;;;;;;5043321;28;20220;-82
2022/01/12 10:33:31;;;;;;;14.40;10.43;;;-0.10;94.30;;;;;;5025011;28;20170;-84
2022/01/12 10:36:00;;;;;;;18.83;10.97;;;-0.10;94.20;;;;;;5036758;28;20181;-85
2022/01/12 10:38:27;;;;;;;18.73;11.40;;;-0.10;94.30;;;;;;5037352;28;20171;-85
2022/01/12 10:40:59;;;;;;;14.00;10.70;;;0.00;94.40;;;;;;5036777;28;20201;-84
2022/01/12 10:43:34;;;;;;;13.50;9.73;;;0.00;94.40;;;;;;5044842;28;20165;-84
2022/01/12 10:46:03;;;;;;;13.67;9.93;;;0.10;94.00;;;;;;5040533;28;20165;-85
2022/01/12 10:48:45;;;;;;;36.63;9.87;;;0.10;93.90;;;;;;5047341;28;20201;-82
2022/01/12 10:51:21;;;;;;;13.07;9.37;;;0.10;93.80;;;;;;5038110;28;20233;-85
2022/01/12 10:53:49;;;;;;;12.57;9.30;;;0.10;93.70;;;;;;5037318;28;20212;-85
2022/01/12 10:56:21;;;;;;;13.90;9.30;;;0.20;93.50;;;;;;5036183;28;20161;-85
2022/01/12 10:58:49;;;;;;;13.50;8.50;;;0.30;93.40;;;;;;5035077;28;20240;-85
2022/01/12 11:01:17;;;;;;;11.30;8.93;;;0.20;93.50;;;;;;5017941;28;20593;-85
2022/01/12 11:03:43;;;;;;;13.13;9.60;;;0.30;93.50;;;;;;5035971;28;20256;-85
2022/01/12 11:06:10;;;;;;;14.27;9.30;;;0.30;93.50;;;;;;5035899;28;20278;-85
2022/01/12 11:08:38;;;;;;;11.93;8.97;;;0.40;93.20;;;;;;5035915;28;20171;-82
2022/01/12 11:11:05;;;;;;;13.20;9.80;;;0.40;93.30;;;;;;5035811;28;20191;-82
2022/01/12 11:13:33;;;;;;;11.67;8.60;;;0.40;93.40;;;;;;5035460;28;20174;-83
2022/01/12 11:16:03;;;;;;;12.40;9.17;;;0.50;93.20;;;;;;5035604;28;20253;-82
2022/01/12 11:18:33;;;;;;;12.40;8.87;;;0.50;93.10;;;;;;5035513;28;20190;-84
2022/01/12 11:21:05;;;;;;;10.70;8.43;;;0.40;93.00;;;;;;5035628;28;20209;-84
2022/01/12 11:23:40;;;;;;;14.97;9.43;;;0.50;92.60;;;;;;5035399;28;20638;-82
2022/01/12 11:26:18;;;;;;;12.93;8.50;;;0.60;92.60;;;;;;5017902;28;20182;-82
2022/01/12 11:28:44;;;;;;;14.20;8.80;;;0.60;92.70;;;;;;5035538;28;20157;-81
2022/01/12 11:31:12;;;;;;;11.53;8.57;;;0.60;92.80;;;;;;5016956;28;20178;-83
2022/01/12 11:33:43;;;;;;;12.83;9.03;;;0.60;92.70;;;;;;5017488;28;20181;-81
2022/01/12 11:36:34;;;;;;;13.33;8.70;;;0.60;92.60;;;;;;5035535;28;20177;-82
2022/01/12 11:39:10;;;;;;;14.63;8.93;;;0.70;92.60;;;;;;5035407;28;20245;-83
2022/01/12 11:41:47;;;;;;;15.07;9.07;;;0.70;92.60;;;;;;5035245;28;20182;-83
2022/01/12 11:44:20;;;;;;;12.73;8.43;;;0.80;92.50;;;;;;5035556;28;20252;-81
2022/01/12 11:46:50;;;;;;;13.77;8.47;;;0.80;92.20;;;;;;5035508;28;20166;-84
2022/01/12 11:49:35;;;;;;;12.13;8.90;;;1.00;92.30;;;;;;5018309;28;20697;-83
2022/01/12 11:52:13;;;;;;;13.80;9.80;;;1.00;92.60;;;;;;5035174;28;20183;-84
2022/01/12 11:54:43;;;;;;;11.93;9.67;;;0.90;92.40;;;;;;5042339;28;20532;-84
2022/01/12 11:57:13;;;;;;;11.33;8.63;;;0.90;92.50;;;;;;5052069;28;20154;-83
2022/01/12 11:59:54;;;;;;;11.80;9.37;;;0.90;92.40;;;;;;5047514;28;20205;-84
2022/01/12 12:02:30;;;;;;;12.43;9.57;;;1.00;92.70;;;;;;5038514;28;20173;-84
2022/01/12 12:04:58;;;;;;;14.77;9.53;;;1.00;92.30;;;;;;5017529;28;20194;-84
2022/01/12 12:07:25;;;;;;;15.03;10.00;;;1.00;92.20;;;;;;5035096;28;20166;-84
2022/01/12 12:09:56;;;;;;;13.07;9.27;;;1.00;92.20;;;;;;5034329;28;20170;-85
2022/01/12 12:12:30;;;;;;;14.27;9.07;;;1.00;91.90;;;;;;5034636;28;20162;-84
2022/01/12 12:14:58;;;;;;;15.67;9.63;;;1.10;91.90;;;;;;5034571;28;20228;-85
2022/01/12 12:17:26;;;;;;;13.73;9.33;;;1.20;91.90;;;;;;5034601;28;20666;-82
2022/01/12 12:19:53;;;;;;;14.20;10.07;;;1.20;92.40;;;;;;5034173;28;20289;-82
2022/01/12 12:22:25;;;;;;;11.43;9.60;;;1.20;92.30;;;;;;5034410;28;20173;-83
2022/01/12 12:24:55;;;;;;;12.97;8.97;;;1.20;92.40;;;;;;5034433;28;20172;-83
2022/01/12 12:27:25;;;;;;;12.63;9.47;;;1.20;92.10;;;;;;5034081;28;20172;-83
2022/01/12 12:29:52;;;;;;;12.93;9.40;;;1.30;91.90;;;;;;5034003;28;20308;-85
2022/01/12 12:32:31;;;;;;;11.77;8.87;;;1.30;91.90;;;;;;5033859;28;20572;-83
2022/01/12 12:35:06;;;;;;;12.10;8.47;;;1.30;92.00;;;;;;5034179;28;20192;-83
2022/01/12 12:37:41;;;;;;;13.50;7.73;;;1.30;92.30;;;;;;5034081;28;20179;-81
2022/01/12 12:40:13;;;;;;;10.50;8.30;;;1.30;92.00;;;;;;5034481;28;20190;-82
2022/01/12 12:42:39;;;;;;;12.57;8.60;;;1.30;91.60;;;;;;5038423;28;20187;-82
2022/01/12 12:45:05;;;;;;;12.90;9.30;;;1.30;91.90;;;;;;5034882;28;20173;-81
2022/01/12 12:47:32;;;;;;;11.97;8.70;;;1.30;91.90;;;;;;5034434;28;20173;-81
2022/01/12 12:50:01;;;;;;;12.27;8.57;;;1.30;92.00;;;;;;5016115;28;20186;-84
2022/01/12 12:52:34;;;;;;;13.20;9.60;;;1.40;92.00;;;;;;5033709;28;20172;-82
2022/01/12 12:55:04;;;;;;;15.17;9.70;;;1.40;91.70;;;;;;5015902;28;20657;-82
2022/01/12 12:57:30;;;;;;;12.00;9.30;;;1.40;91.70;;;;;;5033827;28;20178;-84
2022/01/12 13:00:16;;;;;;;11.57;8.53;;;1.50;91.90;;;;;;5033159;28;20197;-81
2022/01/12 13:02:46;;;;;;;12.60;9.40;;;1.50;91.80;;;;;;5033079;28;20245;-81
2022/01/12 13:05:14;;;;;;;13.87;9.00;;;1.60;92.20;;;;;;5033585;28;20181;-81
2022/01/12 13:07:43;;;;;;;13.13;8.67;;;1.60;92.10;;;;;;5033827;28;20267;-83
2022/01/12 13:10:14;;;;;;;14.73;9.50;;;1.60;91.90;;;;;;5033339;28;20637;-83
2022/01/12 13:12:46;;;;;;;23.80;12.20;;;1.70;92.30;;;;;;5033420;28;20160;-84
2022/01/12 13:15:24;;;;;;;14.00;10.00;;;1.80;92.30;;;;;;5033574;28;20611;-82
2022/01/12 13:18:07;;;;;;;12.97;9.23;;;1.70;92.30;;;;;;5033339;28;20174;-84
2022/01/12 13:23:31;;;;;;;23.93;14.43;;;1.70;92.20;;;;;;5033269;28;20228;-84
2022/01/12 13:26:04;;;;;;;21.10;12.67;;;1.70;92.00;;;;;;5033632;28;20224;-82
2022/01/12 13:28:31;;;;;;;18.60;10.33;;;1.80;92.10;;;;;;5033226;28;20170;-83
2022/01/12 13:31:01;;;;;;;24.83;14.97;;;1.80;92.10;;;;;;5033442;28;20221;-84
2022/01/12 13:33:31;;;;;;;25.77;15.47;;;1.70;92.10;;;;;;5033430;28;20195;-85
2022/01/12 13:35:59;;;;;;;18.63;11.30;;;1.80;92.40;;;;;;5017167;28;20182;-84
2022/01/12 13:38:30;;;;;;;13.93;10.20;;;1.90;92.30;;;;;;5015633;28;20641;-85
2022/01/12 13:41:18;;;;;;;15.13;10.30;;;1.90;92.20;;;;;;5033549;28;20236;-84
2022/01/12 13:43:48;;;;;;;18.07;10.87;;;2.00;92.20;;;;;;5015722;28;20182;-84
2022/01/12 13:46:16;;;;;;;42.97;22.30;;;1.90;92.00;;;;;;5016450;28;20235;-86
2022/01/12 13:51:57;;;;;;;33.10;17.47;;;1.70;92.40;;;;;;4985758;28;20190;-82
2022/01/12 13:54:27;;;;;;;29.20;14.00;;;1.80;92.50;;;;;;4987672;28;20215;-84
2022/01/12 13:56:56;;;;;;;20.67;12.90;;;1.80;92.60;;;;;;4973319;28;20173;-83
2022/01/12 13:59:26;;;;;;;20.73;13.33;;;1.80;92.40;;;;;;4973333;28;20173;-85
2022/01/12 14:01:51;;;;;;;19.17;12.43;;;1.80;92.40;;;;;;4942073;28;20188;-84
2022/01/12 14:04:31;;;;;;;21.57;13.53;;;1.90;92.20;;;;;;4972517;28;20185;-83